Time;durP1;ratioP1;P1;durP2;ratioP2;P2;SDS_P1;SDS_P2;PMS_P1;PMS_P2;Temp;Humidity;BMP_temperature;BMP_pressure;BME280_temperature;BME280_humidity;BME280_pressure;Samples;Min_cycle;Max_cycle;Signal;HPM_P1;HPM_P2
2023/06/22 00:02:21;;;;;;;10.52;9.75;;;25.00;54.80;;;;;;20657;6731;337028;-75
2023/06/22 00:04:58;;;;;;;10.40;9.40;;;25.40;53.90;;;;;;20704;6719;286920;-75
2023/06/22 00:07:33;;;;;;;10.07;9.35;;;25.40;53.90;;;;;;20681;6733;276868;-76
2023/06/22 00:10:09;;;;;;;10.98;9.98;;;25.60;53.60;;;;;;20607;6723;333492;-75
2023/06/22 00:12:45;;;;;;;10.70;9.67;;;25.60;53.30;;;;;;20896;6725;118512;-76
2023/06/22 00:15:20;;;;;;;10.50;9.50;;;25.40;53.70;;;;;;20704;6727;305863;-76
2023/06/22 00:17:57;;;;;;;10.43;9.60;;;25.50;53.90;;;;;;20727;6717;282232;-76
2023/06/22 00:20:32;;;;;;;10.48;9.68;;;25.40;53.80;;;;;;20605;6722;282255;-75
2023/06/22 00:23:08;;;;;;;8.70;8.07;;;25.60;53.50;;;;;;20892;6727;118818;-75
2023/06/22 00:25:43;;;;;;;10.50;9.60;;;25.40;53.70;;;;;;20718;6731;293668;-76
2023/06/22 00:28:19;;;;;;;11.27;10.37;;;25.30;53.90;;;;;;20714;6728;296868;-75
2023/06/22 00:30:55;;;;;;;9.10;8.40;;;25.50;53.70;;;;;;20715;6788;123940;-76
2023/06/22 00:33:31;;;;;;;9.53;8.33;;;25.20;53.90;;;;;;20930;6731;116957;-76
2023/06/22 00:36:07;;;;;;;9.13;8.53;;;24.90;54.50;;;;;;20940;6723;117949;-76
2023/06/22 00:38:41;;;;;;;9.60;8.90;;;24.60;55.00;;;;;;20705;6723;310945;-76
2023/06/22 00:41:17;;;;;;;10.03;9.03;;;24.70;55.20;;;;;;20898;6733;117289;-76
2023/06/22 00:43:52;;;;;;;10.27;9.40;;;24.70;55.10;;;;;;20688;6733;291878;-76
2023/06/22 00:46:31;;;;;;;9.30;8.60;;;24.80;55.00;;;;;;20899;6733;118761;-76
2023/06/22 00:49:05;;;;;;;9.93;9.03;;;24.70;55.00;;;;;;20740;6762;117992;-75
2023/06/22 00:51:45;;;;;;;9.90;8.97;;;24.40;55.30;;;;;;20937;6722;118605;-75
2023/06/22 00:54:15;;;;;;;10.33;9.63;;;24.40;56.00;;;;;;20730;6722;309797;-76
2023/06/22 00:56:52;;;;;;;10.37;9.53;;;24.40;56.00;;;;;;20866;6743;118475;-76
2023/06/22 00:59:26;;;;;;;11.33;10.43;;;24.40;55.80;;;;;;20586;6731;308781;-76
2023/06/22 01:02:02;;;;;;;11.75;10.75;;;24.60;55.70;;;;;;20734;6716;308192;-76
2023/06/22 01:04:38;;;;;;;11.88;10.80;;;24.90;55.20;;;;;;20680;6731;340271;-75
2023/06/22 01:07:46;;;;;;;11.83;11.00;;;25.10;54.70;;;;;;20731;6719;310188;-75
2023/06/22 01:10:38;;;;;;;10.37;9.50;;;25.20;54.30;;;;;;20807;6719;122793;-75
2023/06/22 01:13:28;;;;;;;12.55;11.55;;;24.80;54.70;;;;;;20725;6734;277523;-75
2023/06/22 01:16:03;;;;;;;12.83;11.77;;;24.80;55.00;;;;;;20639;6746;278250;-76
2023/06/22 01:18:39;;;;;;;11.57;10.68;;;25.10;54.60;;;;;;20626;6746;341144;-76
2023/06/22 01:21:15;;;;;;;10.17;9.23;;;25.10;54.60;;;;;;20747;6772;119568;-75
2023/06/22 01:24:07;;;;;;;10.23;9.23;;;24.80;55.00;;;;;;20765;6769;118674;-75
2023/06/22 01:27:22;;;;;;;10.53;9.73;;;24.50;55.60;;;;;;20793;6747;122012;-75
2023/06/22 01:30:00;;;;;;;10.03;9.20;;;24.10;56.00;;;;;;20694;6776;118797;-75
2023/06/22 01:32:33;;;;;;;10.23;9.47;;;23.80;56.50;;;;;;20882;6739;117695;-75
2023/06/22 01:35:09;;;;;;;11.77;10.77;;;23.60;56.80;;;;;;20653;6733;307498;-76
2023/06/22 01:37:45;;;;;;;12.13;11.32;;;23.80;57.20;;;;;;20627;6750;341474;-75
2023/06/22 01:40:20;;;;;;;10.97;10.10;;;24.20;56.50;;;;;;20750;6724;122897;-75
2023/06/22 01:42:56;;;;;;;11.37;10.40;;;24.10;56.40;;;;;;20766;6776;121180;-76
2023/06/22 01:45:31;;;;;;;9.27;8.47;;;23.90;56.80;;;;;;20815;6761;117571;-75
2023/06/22 01:48:07;;;;;;;11.80;10.80;;;23.70;57.20;;;;;;20692;6739;311061;-76
2023/06/22 01:50:42;;;;;;;11.15;10.35;;;23.90;57.10;;;;;;20503;6745;309054;-76
2023/06/22 01:53:18;;;;;;;10.13;9.33;;;24.30;56.40;;;;;;20928;6726;117337;-76
2023/06/22 01:55:54;;;;;;;11.30;10.40;;;24.20;56.30;;;;;;20722;6726;279286;-76
2023/06/22 01:58:29;;;;;;;9.50;8.83;;;24.30;56.20;;;;;;20867;6741;117719;-76
2023/06/22 02:01:12;;;;;;;10.53;9.40;;;24.20;56.30;;;;;;20910;6726;120591;-76
2023/06/22 02:03:47;;;;;;;11.93;10.87;;;23.90;56.60;;;;;;20708;6726;305812;-75
2023/06/22 02:06:35;;;;;;;11.50;10.70;;;24.00;56.60;;;;;;20671;6741;276243;-75
2023/06/22 02:09:08;;;;;;;11.50;10.70;;;24.30;56.00;;;;;;20649;6726;277960;-75
2023/06/22 02:11:43;;;;;;;10.43;9.63;;;24.60;55.50;;;;;;20695;6734;278440;-75
2023/06/22 02:14:19;;;;;;;11.12;10.35;;;24.80;55.20;;;;;;20697;6719;325450;-75
2023/06/22 02:16:54;;;;;;;9.30;8.60;;;24.90;54.70;;;;;;20845;6752;124229;-75
2023/06/22 02:19:33;;;;;;;10.20;9.40;;;24.70;55.10;;;;;;20586;6736;312053;-75
2023/06/22 02:22:06;;;;;;;9.30;8.63;;;24.70;55.30;;;;;;20846;6744;117231;-75
2023/06/22 02:24:42;;;;;;;11.80;10.80;;;24.50;55.40;;;;;;20633;6738;308611;-77
2023/06/22 02:27:18;;;;;;;12.00;10.98;;;24.50;55.40;;;;;;20675;6737;277196;-76
2023/06/22 02:29:53;;;;;;;11.95;11.05;;;24.70;55.20;;;;;;20587;6730;338529;-75
2023/06/22 02:32:29;;;;;;;10.93;10.10;;;24.80;54.80;;;;;;20982;6719;118129;-75
2023/06/22 02:35:06;;;;;;;11.30;10.40;;;24.50;55.70;;;;;;20921;6732;120348;-75
2023/06/22 02:37:41;;;;;;;13.00;11.90;;;24.20;55.60;;;;;;20699;6728;305487;-75
2023/06/22 02:40:18;;;;;;;12.15;11.20;;;24.40;55.30;;;;;;20623;6715;341120;-75
2023/06/22 02:42:53;;;;;;;12.07;11.17;;;24.40;56.20;;;;;;20715;6715;276265;-75
2023/06/22 02:45:29;;;;;;;12.83;11.83;;;24.60;55.20;;;;;;20676;6728;306803;-75
2023/06/22 02:48:04;;;;;;;12.55;11.55;;;24.70;54.90;;;;;;20697;6728;305910;-75
2023/06/22 02:50:40;;;;;;;12.20;11.30;;;24.80;54.70;;;;;;20612;6713;280510;-75
2023/06/22 02:53:16;;;;;;;13.43;12.18;;;24.80;55.40;;;;;;20706;6713;303317;-75
2023/06/22 02:55:51;;;;;;;12.55;11.45;;;24.90;54.50;;;;;;20730;6713;310188;-75
2023/06/22 02:58:27;;;;;;;11.27;10.37;;;24.90;54.50;;;;;;20934;6713;117204;-75
2023/06/22 03:01:04;;;;;;;10.93;10.03;;;24.00;55.60;;;;;;20859;6733;118302;-75
2023/06/22 03:03:39;;;;;;;10.57;9.80;;;24.00;55.50;;;;;;20877;6741;121732;-75
2023/06/22 03:06:17;;;;;;;11.20;10.17;;;23.60;56.20;;;;;;20905;6743;117258;-75
2023/06/22 03:08:50;;;;;;;11.83;10.90;;;23.40;56.80;;;;;;20592;6743;308420;-75
2023/06/22 03:11:25;;;;;;;10.27;9.23;;;23.50;57.50;;;;;;20921;6739;117816;-75
2023/06/22 03:14:01;;;;;;;11.80;10.90;;;23.50;57.40;;;;;;20699;6727;276868;-75
2023/06/22 03:16:37;;;;;;;12.95;11.95;;;24.00;56.70;;;;;;20695;6726;305670;-75
2023/06/22 03:19:13;;;;;;;11.53;10.47;;;24.00;56.70;;;;;;20839;6725;118896;-75
2023/06/22 03:21:49;;;;;;;11.37;10.47;;;23.80;56.70;;;;;;20911;6727;117409;-75
2023/06/22 03:24:28;;;;;;;12.07;11.03;;;23.20;58.00;;;;;;20887;6739;121088;-75
2023/06/22 03:27:05;;;;;;;13.63;12.63;;;23.20;57.60;;;;;;20574;6760;307761;-75
2023/06/22 03:29:39;;;;;;;12.83;11.93;;;23.40;58.10;;;;;;20518;6754;308804;-75
2023/06/22 03:32:14;;;;;;;11.90;10.70;;;23.70;57.60;;;;;;20873;6739;117897;-75
2023/06/22 03:34:51;;;;;;;13.10;11.80;;;23.30;58.00;;;;;;20854;6739;121605;-75
2023/06/22 03:37:26;;;;;;;13.20;12.10;;;23.30;58.00;;;;;;20903;6730;117861;-73
2023/06/22 03:40:05;;;;;;;11.80;10.70;;;23.10;58.40;;;;;;20763;6730;117756;-73
2023/06/22 03:42:38;;;;;;;13.30;12.20;;;22.90;58.70;;;;;;20658;6739;306603;-74
2023/06/22 03:45:13;;;;;;;11.93;10.93;;;23.20;58.80;;;;;;20890;6728;117283;-74
2023/06/22 03:47:49;;;;;;;11.47;10.43;;;23.20;58.50;;;;;;20802;6758;121146;-74
2023/06/22 03:50:24;;;;;;;12.93;11.30;;;23.10;58.70;;;;;;20700;6758;117539;-74
2023/06/22 03:53:00;;;;;;;14.20;12.90;;;23.00;58.90;;;;;;20711;6736;276330;-74
2023/06/22 03:55:35;;;;;;;12.33;11.00;;;23.30;58.70;;;;;;20909;6729;117824;-74
2023/06/22 03:58:12;;;;;;;12.90;11.70;;;23.30;58.40;;;;;;20925;6731;117199;-74
2023/06/22 04:00:48;;;;;;;13.07;11.77;;;23.20;58.70;;;;;;20700;6731;118150;-74
2023/06/22 04:03:23;;;;;;;14.52;13.23;;;23.00;58.80;;;;;;20764;6711;309280;-76
2023/06/22 04:05:59;;;;;;;11.93;10.93;;;23.20;58.80;;;;;;20976;6711;117127;-74
2023/06/22 04:08:35;;;;;;;13.47;12.37;;;23.30;58.60;;;;;;20624;6711;305942;-74
2023/06/22 04:11:10;;;;;;;11.17;10.27;;;23.50;58.20;;;;;;20919;6718;118379;-75
2023/06/22 04:13:48;;;;;;;12.63;11.43;;;23.50;58.20;;;;;;20766;6719;283481;-75
2023/06/22 04:16:22;;;;;;;11.40;10.47;;;23.60;57.80;;;;;;20979;6710;117082;-74
2023/06/22 04:18:58;;;;;;;12.83;11.80;;;23.80;57.60;;;;;;20617;6725;278052;-75
2023/06/22 04:21:35;;;;;;;11.07;10.13;;;23.70;57.50;;;;;;20864;6734;120570;-75
2023/06/22 04:24:11;;;;;;;9.50;8.90;;;23.70;57.50;;;;;;20891;6731;118324;-75
2023/06/22 04:26:49;;;;;;;11.13;10.10;;;23.50;57.80;;;;;;20955;6720;117262;-77
2023/06/22 04:29:28;;;;;;;12.10;11.10;;;23.30;58.20;;;;;;20613;6736;313143;-73
2023/06/22 04:32:05;;;;;;;11.40;10.40;;;23.50;57.90;;;;;;20884;6739;117084;-73
2023/06/22 04:34:41;;;;;;;11.50;10.47;;;23.50;58.10;;;;;;20849;6743;117822;-74
2023/06/22 04:37:19;;;;;;;10.80;10.00;;;23.50;58.10;;;;;;20922;6719;117583;-76
2023/06/22 04:39:53;;;;;;;12.60;11.50;;;23.60;58.00;;;;;;20638;6719;299089;-74
2023/06/22 04:42:28;;;;;;;12.10;11.12;;;23.60;57.90;;;;;;20685;6734;277880;-74
2023/06/22 04:45:04;;;;;;;12.27;11.35;;;24.10;57.00;;;;;;20665;6734;335710;-74
2023/06/22 04:47:40;;;;;;;11.50;10.47;;;24.50;56.40;;;;;;20937;6713;117269;-73
2023/06/22 04:50:16;;;;;;;10.57;9.67;;;24.40;56.30;;;;;;20751;6734;118119;-73
2023/06/22 04:52:52;;;;;;;9.87;9.00;;;24.00;57.10;;;;;;20928;6729;123443;-74
2023/06/22 04:55:27;;;;;;;11.23;10.30;;;23.90;57.00;;;;;;20679;6732;306408;-75
2023/06/22 04:58:04;;;;;;;11.00;9.27;;;24.20;56.70;;;;;;20853;6746;117592;-75
2023/06/22 05:00:38;;;;;;;9.83;8.93;;;24.20;56.60;;;;;;20689;6739;70531;-75
2023/06/22 05:03:18;;;;;;;9.47;8.77;;;24.00;56.70;;;;;;20885;6728;117511;-73
2023/06/22 05:05:50;;;;;;;10.80;9.90;;;23.90;56.90;;;;;;20689;6726;306008;-73
2023/06/22 05:08:26;;;;;;;11.25;10.30;;;24.20;56.40;;;;;;20715;6720;337383;-73
2023/06/22 05:11:01;;;;;;;10.80;9.80;;;24.50;55.70;;;;;;20725;6725;276200;-72
2023/06/22 05:13:36;;;;;;;11.13;10.10;;;24.80;55.30;;;;;;20749;6719;305623;-73
2023/06/22 05:16:12;;;;;;;11.20;10.10;;;25.10;54.60;;;;;;20665;6733;311755;-75
2023/06/22 05:18:48;;;;;;;11.00;10.00;;;25.30;54.10;;;;;;20585;6743;278995;-75
2023/06/22 05:21:25;;;;;;;11.10;10.20;;;25.60;53.20;;;;;;20742;6712;276404;-74
2023/06/22 05:24:02;;;;;;;10.73;9.90;;;25.60;53.20;;;;;;20690;6729;277637;-75
2023/06/22 05:26:36;;;;;;;10.65;9.82;;;25.80;52.90;;;;;;20739;6706;305644;-76
2023/06/22 05:29:12;;;;;;;9.77;8.97;;;25.90;52.60;;;;;;20873;6705;119494;-75
2023/06/22 05:31:47;;;;;;;9.17;8.37;;;25.60;53.00;;;;;;20912;6719;120324;-75
2023/06/22 05:34:23;;;;;;;8.93;8.20;;;25.20;53.70;;;;;;20957;6707;120043;-75
2023/06/22 05:36:58;;;;;;;9.50;8.70;;;25.00;54.40;;;;;;20898;6722;119716;-76
2023/06/22 05:39:37;;;;;;;9.13;8.37;;;24.80;54.80;;;;;;20916;6711;121528;-76
2023/06/22 05:42:11;;;;;;;9.50;8.70;;;24.80;55.10;;;;;;20741;6711;305909;-75
2023/06/22 05:44:47;;;;;;;9.68;8.85;;;25.10;54.70;;;;;;20611;6745;306488;-75
2023/06/22 05:47:22;;;;;;;9.60;8.67;;;25.60;53.40;;;;;;20700;6721;305666;-79
2023/06/22 05:49:58;;;;;;;7.87;7.17;;;26.00;52.80;;;;;;20746;6737;117918;-75
2023/06/22 05:52:34;;;;;;;7.70;7.10;;;26.00;52.90;;;;;;20869;6737;117537;-76
2023/06/22 05:55:10;;;;;;;9.02;8.15;;;25.90;53.20;;;;;;20650;6736;277550;-75
2023/06/22 05:57:46;;;;;;;7.70;7.00;;;26.10;52.10;;;;;;20817;6751;117055;-76
2023/06/22 06:00:23;;;;;;;9.00;8.23;;;26.50;51.20;;;;;;20492;6751;284602;-75
2023/06/22 06:03:02;;;;;;;8.20;7.50;;;26.50;51.20;;;;;;20695;6721;277066;-74
2023/06/22 06:05:37;;;;;;;8.50;7.60;;;27.50;49.20;;;;;;20702;6721;308088;-75
2023/06/22 06:08:11;;;;;;;8.10;7.20;;;27.50;49.20;;;;;;20617;6736;312258;-74
2023/06/22 06:10:45;;;;;;;7.85;7.15;;;27.90;48.20;;;;;;20488;6736;310324;-75
2023/06/22 06:13:21;;;;;;;7.80;7.10;;;28.60;47.60;;;;;;20643;6751;335747;-75
2023/06/22 06:15:57;;;;;;;6.43;5.93;;;29.30;46.00;;;;;;20846;6756;120611;-75
2023/06/22 06:18:32;;;;;;;6.90;6.30;;;29.60;46.50;;;;;;20807;6759;122158;-76
2023/06/22 06:21:09;;;;;;;6.50;5.90;;;29.70;46.80;;;;;;20654;6738;291411;-75
2023/06/22 06:23:44;;;;;;;25.42;7.93;;;30.20;43.80;;;;;;20743;6725;298615;-74
2023/06/22 06:26:27;;;;;;;13.27;7.20;;;30.90;42.70;;;;;;20705;6725;319383;-75
2023/06/22 06:28:55;;;;;;;7.03;6.17;;;31.50;41.90;;;;;;20873;6733;119983;-75
2023/06/22 06:31:31;;;;;;;7.07;6.30;;;31.60;42.60;;;;;;20934;6714;117725;-76
2023/06/22 06:34:09;;;;;;;7.93;5.57;;;31.60;43.40;;;;;;20946;6714;116900;-76
2023/06/22 06:36:42;;;;;;;7.43;6.50;;;31.60;43.70;;;;;;20712;6714;307525;-76
2023/06/22 06:39:18;;;;;;;7.53;6.30;;;32.00;41.10;;;;;;20776;6745;117564;-76
2023/06/22 06:41:54;;;;;;;7.60;5.93;;;32.30;42.10;;;;;;20750;6775;118876;-76
2023/06/22 06:44:30;;;;;;;6.10;5.70;;;32.20;42.00;;;;;;20794;6749;117203;-76
2023/06/22 06:47:05;;;;;;;8.63;5.90;;;32.30;42.20;;;;;;20801;6751;117427;-76
2023/06/22 06:49:41;;;;;;;6.67;5.83;;;32.40;42.20;;;;;;20572;6735;279459;-76
2023/06/22 06:52:17;;;;;;;6.00;5.50;;;32.90;39.20;;;;;;20958;6721;116839;-77
2023/06/22 06:54:52;;;;;;;6.75;6.25;;;33.10;40.00;;;;;;20682;6724;339842;-76
2023/06/22 06:57:28;;;;;;;7.67;6.37;;;33.60;38.40;;;;;;20855;6739;120497;-78
2023/06/22 07:00:09;;;;;;;6.70;6.10;;;33.70;39.30;;;;;;20582;6734;278094;-76
2023/06/22 07:02:41;;;;;;;7.83;6.20;;;34.00;37.80;;;;;;20813;6754;122001;-76
2023/06/22 07:05:16;;;;;;;7.50;5.70;;;34.00;38.70;;;;;;20833;6751;117192;-75
2023/06/22 07:07:53;;;;;;;6.80;6.20;;;33.80;39.30;;;;;;20662;6736;277608;-75
2023/06/22 07:10:27;;;;;;;7.77;6.87;;;34.10;38.00;;;;;;20587;6722;309642;-77
2023/06/22 07:13:03;;;;;;;7.13;5.53;;;34.50;37.50;;;;;;20827;6735;117385;-75
2023/06/22 07:15:38;;;;;;;7.00;6.30;;;34.30;37.80;;;;;;20683;6735;305858;-75
2023/06/22 07:18:20;;;;;;;6.10;5.50;;;34.40;37.10;;;;;;20909;6735;116986;-76
2023/06/22 07:20:54;;;;;;;7.20;6.07;;;34.30;37.80;;;;;;20529;6791;280008;-76
2023/06/22 07:23:27;;;;;;;6.20;5.70;;;34.30;37.60;;;;;;20886;6735;116892;-76
2023/06/22 07:26:05;;;;;;;10.07;5.87;;;34.30;37.60;;;;;;20651;6740;306130;-76
2023/06/22 07:28:40;;;;;;;10.53;5.70;;;34.30;36.60;;;;;;20874;6727;117092;-77
2023/06/22 07:31:14;;;;;;;6.30;5.73;;;34.20;37.30;;;;;;20690;6719;315416;-76
2023/06/22 07:33:49;;;;;;;6.78;5.45;;;34.20;36.30;;;;;;20742;6717;305544;-77
2023/06/22 07:36:29;;;;;;;6.90;6.27;;;34.20;36.10;;;;;;20979;6717;118198;-76
2023/06/22 07:39:03;;;;;;;6.63;6.03;;;34.20;36.10;;;;;;20907;6717;117216;-77
2023/06/22 07:41:42;;;;;;;8.80;5.63;;;33.90;36.70;;;;;;20887;6745;122280;-76
2023/06/22 07:44:15;;;;;;;6.62;6.03;;;33.50;37.30;;;;;;20679;6744;330603;-76
2023/06/22 07:46:50;;;;;;;6.10;5.70;;;33.50;37.30;;;;;;20966;6719;117243;-77
2023/06/22 07:49:27;;;;;;;6.47;5.80;;;33.40;37.50;;;;;;20793;6731;117584;-76
2023/06/22 07:52:03;;;;;;;7.50;6.43;;;33.10;38.00;;;;;;20660;6733;277111;-77
2023/06/22 07:54:38;;;;;;;8.73;7.20;;;33.30;37.90;;;;;;20674;6732;283186;-78
2023/06/22 07:57:14;;;;;;;7.20;6.60;;;33.50;37.80;;;;;;20611;6747;278208;-76
2023/06/22 07:59:50;;;;;;;7.50;6.70;;;33.70;37.70;;;;;;20530;6747;281049;-74
2023/06/22 08:02:26;;;;;;;7.70;7.00;;;33.60;37.60;;;;;;20631;6733;306879;-75
2023/06/22 08:05:04;;;;;;;9.93;6.60;;;33.80;36.70;;;;;;20587;6751;278454;-76
2023/06/22 08:07:38;;;;;;;8.15;7.20;;;33.90;37.30;;;;;;20597;6754;277732;-76
2023/06/22 08:10:14;;;;;;;8.60;6.50;;;34.10;37.20;;;;;;20711;6746;117529;-75
2023/06/22 08:12:49;;;;;;;7.87;7.07;;;33.90;37.40;;;;;;20860;6746;120738;-75
2023/06/22 08:15:26;;;;;;;9.50;7.50;;;33.70;37.20;;;;;;20597;6764;287289;-74
2023/06/22 08:18:01;;;;;;;10.00;7.05;;;33.70;37.20;;;;;;20641;6742;307650;-74
2023/06/22 08:20:37;;;;;;;7.65;6.95;;;33.90;37.60;;;;;;20550;6738;308158;-76
2023/06/22 08:23:12;;;;;;;7.00;6.40;;;34.20;37.80;;;;;;20862;6738;120356;-75
2023/06/22 08:25:50;;;;;;;7.10;6.33;;;34.20;37.90;;;;;;20845;6737;117551;-75
2023/06/22 08:28:24;;;;;;;7.10;5.67;;;34.00;38.20;;;;;;20827;6753;123025;-75
2023/06/22 08:31:01;;;;;;;8.10;5.90;;;33.90;39.00;;;;;;20817;6750;117232;-75
2023/06/22 08:33:35;;;;;;;7.32;6.30;;;33.80;38.80;;;;;;20550;6765;305690;-77
2023/06/22 08:36:13;;;;;;;13.52;5.97;;;34.20;37.80;;;;;;20626;6747;339907;-74
2023/06/22 08:38:51;;;;;;;8.63;5.83;;;34.70;38.40;;;;;;20798;6751;120447;-76
2023/06/22 08:41:22;;;;;;;9.27;6.63;;;34.70;37.80;;;;;;20637;6744;306588;-75
2023/06/22 08:43:58;;;;;;;6.83;6.13;;;34.90;37.60;;;;;;20690;6729;276816;-75
2023/06/22 08:46:33;;;;;;;6.93;6.20;;;35.10;37.20;;;;;;20657;6729;309538;-75
2023/06/22 08:49:10;;;;;;;9.38;6.50;;;35.40;35.70;;;;;;20580;6754;335849;-75
2023/06/22 08:51:47;;;;;;;6.80;5.90;;;35.50;35.80;;;;;;20811;6767;117651;-75
2023/06/22 08:54:21;;;;;;;6.87;5.60;;;35.20;36.30;;;;;;20770;6767;118217;-75
2023/06/22 08:56:57;;;;;;;8.50;6.27;;;35.00;36.80;;;;;;20607;6750;277026;-76
2023/06/22 08:59:32;;;;;;;7.10;6.40;;;35.00;36.50;;;;;;20512;6763;287018;-75
2023/06/22 09:02:08;;;;;;;10.20;6.00;;;35.10;36.60;;;;;;20877;6749;119486;-75
2023/06/22 09:04:43;;;;;;;9.13;6.30;;;34.90;36.40;;;;;;20681;6732;278450;-76
2023/06/22 09:07:23;;;;;;;6.82;6.10;;;34.70;36.70;;;;;;20725;6715;340933;-75
2023/06/22 09:09:54;;;;;;;6.30;5.70;;;35.00;36.80;;;;;;20796;6728;117395;-75
2023/06/22 09:12:32;;;;;;;10.90;5.93;;;35.10;37.40;;;;;;20948;6728;119604;-75
2023/06/22 09:15:08;;;;;;;10.07;6.13;;;34.90;36.90;;;;;;20811;6747;120854;-75
2023/06/22 09:17:46;;;;;;;11.73;6.00;;;34.80;37.10;;;;;;20897;6729;117557;-75
2023/06/22 09:20:20;;;;;;;11.00;6.78;;;35.10;37.00;;;;;;20521;6746;312396;-74
2023/06/22 09:22:56;;;;;;;7.00;6.37;;;35.10;36.90;;;;;;20831;6745;117606;-74
2023/06/22 09:25:31;;;;;;;10.33;6.00;;;35.20;36.80;;;;;;20861;6741;119436;-74
2023/06/22 09:28:07;;;;;;;10.15;6.82;;;35.10;37.10;;;;;;20923;6719;120945;-73
2023/06/22 09:30:42;;;;;;;8.47;6.10;;;35.00;37.10;;;;;;20721;6746;120643;-74
2023/06/22 09:33:19;;;;;;;8.40;6.80;;;34.90;37.20;;;;;;20679;6727;281049;-73
2023/06/22 09:35:54;;;;;;;10.10;6.53;;;35.20;37.10;;;;;;20700;6727;278259;-75
2023/06/22 09:38:29;;;;;;;7.20;6.50;;;35.50;36.30;;;;;;20690;6727;305795;-75
2023/06/22 09:41:05;;;;;;;9.80;7.00;;;35.90;36.10;;;;;;20917;6716;118026;-74
2023/06/22 09:43:40;;;;;;;9.27;6.47;;;35.90;36.10;;;;;;20976;6706;117577;-74
2023/06/22 09:46:17;;;;;;;7.85;6.37;;;36.00;36.10;;;;;;20755;6706;305636;-74
2023/06/22 09:48:52;;;;;;;9.57;6.07;;;35.90;36.00;;;;;;20929;6705;125036;-77
2023/06/22 09:51:29;;;;;;;8.00;5.87;;;36.10;36.20;;;;;;20884;6738;121993;-76
2023/06/22 09:54:05;;;;;;;8.03;6.33;;;35.80;35.70;;;;;;20919;6720;116848;-75
2023/06/22 09:56:41;;;;;;;9.93;6.85;;;35.80;35.70;;;;;;20727;6716;334569;-74
2023/06/22 09:59:17;;;;;;;8.33;6.30;;;35.90;35.40;;;;;;20842;6729;120692;-75
2023/06/22 10:01:52;;;;;;;10.25;6.55;;;35.80;35.50;;;;;;20588;6761;312352;-74
2023/06/22 10:04:27;;;;;;;8.10;5.90;;;35.80;34.70;;;;;;20921;6717;117133;-75
2023/06/22 10:07:03;;;;;;;9.40;6.30;;;35.50;35.00;;;;;;20789;6753;121940;-77
2023/06/22 10:09:39;;;;;;;7.93;6.10;;;35.20;35.60;;;;;;20780;6744;124203;-74
2023/06/22 10:12:14;;;;;;;8.90;6.45;;;35.00;36.10;;;;;;20655;6731;306587;-75
2023/06/22 10:14:50;;;;;;;7.53;6.80;;;35.20;36.70;;;;;;20928;6729;123203;-73
2023/06/22 10:17:25;;;;;;;7.10;6.40;;;35.30;36.20;;;;;;20898;6729;121974;-74
2023/06/22 10:20:10;;;;;;;6.93;5.47;;;35.20;37.20;;;;;;20759;6745;119283;-78
2023/06/22 10:22:37;;;;;;;8.97;6.60;;;35.20;36.40;;;;;;20648;6742;308506;-74
2023/06/22 10:25:14;;;;;;;7.35;6.30;;;35.80;36.10;;;;;;20722;6825;120304;-74
2023/06/22 10:27:49;;;;;;;8.93;6.45;;;35.80;35.40;;;;;;20581;6748;308159;-74
2023/06/22 10:30:26;;;;;;;7.00;6.07;;;36.20;34.40;;;;;;20682;6734;122862;-73
2023/06/22 10:33:01;;;;;;;9.97;6.10;;;36.20;34.40;;;;;;20800;6745;118824;-77
2023/06/22 10:35:40;;;;;;;7.73;6.27;;;36.20;35.00;;;;;;20843;6764;120081;-73
2023/06/22 10:38:16;;;;;;;8.98;6.50;;;36.10;34.90;;;;;;20558;6780;289779;-75
2023/06/22 10:40:51;;;;;;;8.33;6.30;;;36.30;33.70;;;;;;20673;6792;121813;-75
2023/06/22 10:43:27;;;;;;;11.65;6.65;;;36.20;33.80;;;;;;20630;6749;277826;-76
2023/06/22 10:46:04;;;;;;;7.07;6.30;;;36.30;34.60;;;;;;20916;6723;117063;-73
2023/06/22 10:48:41;;;;;;;9.07;6.33;;;36.60;34.60;;;;;;20574;6753;306635;-75
2023/06/22 10:51:18;;;;;;;9.73;6.20;;;36.50;34.50;;;;;;20830;6753;119353;-76
2023/06/22 10:53:54;;;;;;;8.43;6.10;;;36.60;34.30;;;;;;20893;6732;123757;-74
2023/06/22 10:56:29;;;;;;;7.40;6.53;;;36.40;34.50;;;;;;20609;6747;340320;-75
2023/06/22 10:59:05;;;;;;;9.30;6.40;;;36.50;34.10;;;;;;20775;6749;122228;-75
2023/06/22 11:01:41;;;;;;;11.60;6.07;;;36.40;34.40;;;;;;20881;6758;120125;-75
2023/06/22 11:04:17;;;;;;;9.13;6.40;;;36.20;34.60;;;;;;20639;6742;277627;-75
2023/06/22 11:06:52;;;;;;;8.67;6.03;;;36.40;34.30;;;;;;20621;6742;309232;-75
2023/06/22 11:09:27;;;;;;;10.17;6.60;;;36.70;33.60;;;;;;20558;6736;278725;-75
2023/06/22 11:12:03;;;;;;;9.35;7.00;;;37.00;33.40;;;;;;20649;6732;308584;-74
2023/06/22 11:14:39;;;;;;;9.13;6.20;;;37.30;32.10;;;;;;20579;6756;277426;-75
2023/06/22 11:17:15;;;;;;;8.90;6.33;;;37.40;32.00;;;;;;20552;6756;277916;-75
2023/06/22 11:19:50;;;;;;;7.73;6.17;;;37.50;33.50;;;;;;20687;6755;119669;-75
2023/06/22 11:22:27;;;;;;;10.07;6.90;;;37.40;33.10;;;;;;20660;6739;310524;-75
2023/06/22 11:25:03;;;;;;;9.47;6.40;;;37.30;33.20;;;;;;20784;6747;120085;-75
2023/06/22 11:27:38;;;;;;;10.50;6.17;;;37.20;33.20;;;;;;20863;6729;119218;-75
2023/06/22 11:30:14;;;;;;;7.57;6.68;;;36.90;34.30;;;;;;20503;6729;344118;-76
2023/06/22 11:32:50;;;;;;;12.55;7.05;;;37.00;33.10;;;;;;20671;6722;304673;-73
2023/06/22 11:35:25;;;;;;;8.88;6.45;;;37.20;32.80;;;;;;20659;6729;307902;-75
2023/06/22 11:38:01;;;;;;;11.27;6.73;;;37.40;31.80;;;;;;20867;6729;121855;-75
2023/06/22 11:40:36;;;;;;;9.30;6.13;;;37.10;32.30;;;;;;20801;6714;118460;-75
2023/06/22 11:43:14;;;;;;;8.30;6.62;;;36.60;33.30;;;;;;20695;6714;334934;-78
2023/06/22 11:45:48;;;;;;;7.85;6.18;;;36.60;33.10;;;;;;20934;6714;121777;-74
2023/06/22 11:48:24;;;;;;;8.48;6.40;;;36.40;33.50;;;;;;20713;6714;338535;-75
2023/06/22 11:51:00;;;;;;;8.73;6.55;;;36.40;33.80;;;;;;20676;6714;334958;-76
2023/06/22 11:53:35;;;;;;;9.60;6.80;;;36.60;33.50;;;;;;20934;6714;119218;-75
2023/06/22 11:56:11;;;;;;;8.60;5.90;;;36.50;33.90;;;;;;20883;6714;119051;-74
2023/06/22 11:58:46;;;;;;;8.50;6.53;;;36.30;34.10;;;;;;20672;6714;276933;-74
2023/06/22 12:01:22;;;;;;;10.90;6.60;;;36.50;33.60;;;;;;20723;6708;278340;-74
2023/06/22 12:03:57;;;;;;;7.55;6.70;;;36.80;33.00;;;;;;20718;6709;339524;-74
2023/06/22 12:06:35;;;;;;;8.18;6.47;;;37.10;33.20;;;;;;20692;6709;325929;-74
2023/06/22 12:09:09;;;;;;;9.27;6.62;;;37.50;33.00;;;;;;20581;6732;278611;-75
2023/06/22 12:11:45;;;;;;;8.25;5.75;;;37.40;33.60;;;;;;20951;6721;117913;-75
2023/06/22 12:14:21;;;;;;;9.57;6.57;;;37.10;33.20;;;;;;20606;6746;305856;-74
2023/06/22 12:16:56;;;;;;;8.40;5.80;;;37.10;34.20;;;;;;20801;6746;121158;-75
2023/06/22 12:19:33;;;;;;;7.70;5.60;;;36.50;34.60;;;;;;20731;6746;118493;-75
2023/06/22 12:22:08;;;;;;;7.07;5.70;;;36.50;34.50;;;;;;20773;6751;123219;-74
2023/06/22 12:24:44;;;;;;;9.73;5.83;;;36.20;35.00;;;;;;20766;6762;120235;-75
2023/06/22 12:27:20;;;;;;;8.97;6.43;;;35.90;36.30;;;;;;20686;6726;280365;-74
2023/06/22 12:29:56;;;;;;;8.47;6.03;;;35.80;36.90;;;;;;20655;6761;122684;-74
2023/06/22 12:32:31;;;;;;;7.83;6.27;;;35.70;36.20;;;;;;20905;6719;121961;-74
2023/06/22 12:35:13;;;;;;;8.60;6.50;;;35.50;37.20;;;;;;20696;6714;278543;-74
2023/06/22 12:37:43;;;;;;;13.35;6.78;;;35.50;37.20;;;;;;20628;6737;307506;-75
2023/06/22 12:40:19;;;;;;;13.33;6.43;;;35.60;37.30;;;;;;20756;6719;119729;-74
2023/06/22 12:42:54;;;;;;;8.93;6.50;;;35.40;37.40;;;;;;20887;6719;119985;-75
2023/06/22 12:45:33;;;;;;;7.30;6.30;;;35.10;37.80;;;;;;20973;6711;118876;-75
2023/06/22 12:48:09;;;;;;;9.13;6.60;;;34.80;38.10;;;;;;20905;6734;119510;-74
2023/06/22 12:50:41;;;;;;;8.97;6.60;;;34.70;38.30;;;;;;20793;6711;118425;-74
2023/06/22 12:53:17;;;;;;;9.30;6.60;;;34.50;38.50;;;;;;20873;6735;117532;-75
2023/06/22 12:55:52;;;;;;;10.57;6.70;;;34.30;38.60;;;;;;20672;6734;308579;-74
2023/06/22 12:58:28;;;;;;;14.43;12.88;;;34.50;38.70;;;;;;20671;6734;342342;-74
2023/06/22 13:01:04;;;;;;;11.53;6.77;;;34.90;38.60;;;;;;20842;6744;117603;-74
2023/06/22 13:03:39;;;;;;;9.33;6.80;;;34.80;38.60;;;;;;20627;6751;278443;-74
2023/06/22 13:06:15;;;;;;;8.00;6.20;;;34.90;38.40;;;;;;20833;6767;116994;-73
2023/06/22 13:08:50;;;;;;;12.32;6.82;;;34.80;38.20;;;;;;20496;6774;309857;-74
2023/06/22 13:11:29;;;;;;;9.53;6.87;;;34.90;38.40;;;;;;20591;6761;279991;-74
2023/06/22 13:14:02;;;;;;;10.00;7.03;;;35.20;38.40;;;;;;20639;6757;318851;-74
2023/06/22 13:16:38;;;;;;;9.70;6.80;;;35.70;37.60;;;;;;20673;6734;308532;-74